気象予報士の航空気象 北風吹いて

*All archives   *Admin

2010.01.21 (Thu)

北風吹いて

 今日は寒くなりそうですね。


昨日から、羽田や成田のTAF(飛行場の天気予報)で北風びゅんびゅん予報になってましたよ。


昨日は18度、さて今日は何度になるのでしょう。




ネットを巡ってましたら、おもしろいMETARを見つけました。


-------------------------------------

VIDP 201900Z 00000KT 0000 R28/0125 R29/0100 FG VV/// 09/09 Q1020 NOSIG

インド、ニューデリー、インドラガンジー空港

21日午前0時ごろ 静穏(無風) 視程0m 滑走路視距離 滑走路28で125m 滑走路29で100m 天気は霧 鉛直視程は不明 気温9℃ 露点9℃ 気圧1020hPa

-------------------------------------


なんも見えません。

 


ブログランキングに参加しています。
にほんブログ村 環境ブログ 天気・気象学へ
にほんブログ村
応援クリックをおねがします。


以下、アフィリエイトサイトです。




スポンサーサイト
11:17  |  気象・天気  |  TB(0)  |  CM(0)  |  EDIT  |  Top↑

コメントを投稿する


 管理者だけに表示  (非公開コメント投稿可能)

▲PageTop

この記事のトラックバックURL

→http://weathereucalyptus.blog115.fc2.com/tb.php/368-2efae863
この記事にトラックバックする(FC2ブログユーザー)

この記事へのトラックバック

▲PageTop

 | BLOGTOP |